Time;durP1;ratioP1;P1;durP2;ratioP2;P2;SDS_P1;SDS_P2;PMS_P1;PMS_P2;Temp;Humidity;BMP_temperature;BMP_pressure;BME280_temperature;BME280_humidity;BME280_pressure;Samples;Min_cycle;Max_cycle;Signal;HPM_P1;HPM_P2
2023/04/14 00:06:19;;;;;;;4.22;1.00;;;13.30;44.30;;;;;;20827742;28;20041;-57
2023/04/14 00:16:21;;;;;;;1.27;0.80;;;13.30;44.70;;;;;;20839313;28;20094;-55
2023/04/14 00:26:22;;;;;;;2.35;0.80;;;13.40;44.40;;;;;;20842781;28;20099;-56
2023/04/14 00:36:23;;;;;;;2.92;0.82;;;13.30;44.90;;;;;;20842220;28;20487;-56
2023/04/14 00:46:25;;;;;;;2.45;0.98;;;13.20;45.00;;;;;;20841295;28;20045;-58
2023/04/14 00:56:28;;;;;;;2.63;1.00;;;13.30;44.80;;;;;;20840692;28;20407;-57
2023/04/14 01:06:30;;;;;;;2.47;0.80;;;13.40;45.00;;;;;;20838516;28;20041;-55
2023/04/14 01:16:48;;;;;;;2.40;0.82;;;13.50;45.10;;;;;;20838327;28;20127;-57
2023/04/14 01:27:17;;;;;;;1.88;1.00;;;13.40;45.30;;;;;;20837296;28;20095;-58
2023/04/14 01:37:29;;;;;;;2.90;1.30;;;13.30;45.30;;;;;;20837562;28;20064;-55
2023/04/14 01:47:31;;;;;;;2.83;1.17;;;13.20;45.90;;;;;;20836735;28;20479;-56
2023/04/14 01:57:35;;;;;;;2.88;0.90;;;13.10;46.00;;;;;;20835760;28;20128;-56
2023/04/14 02:07:39;;;;;;;5.80;1.10;;;13.20;46.00;;;;;;20835162;28;20104;-56
2023/04/14 02:17:43;;;;;;;2.28;0.70;;;13.00;46.50;;;;;;20833620;28;20090;-57
2023/04/14 02:27:49;;;;;;;2.92;1.00;;;12.90;46.90;;;;;;20833707;28;20045;-56
2023/04/14 02:37:55;;;;;;;2.05;0.80;;;12.90;47.40;;;;;;20832850;28;20061;-58
2023/04/14 02:48:02;;;;;;;2.63;0.90;;;12.70;47.90;;;;;;20832483;28;20045;-57
2023/04/14 02:58:04;;;;;;;3.83;1.00;;;12.70;48.10;;;;;;20831971;28;20049;-56
2023/04/14 03:08:07;;;;;;;2.40;1.02;;;12.60;48.70;;;;;;20831483;28;20056;-57
2023/04/14 03:18:11;;;;;;;1.80;0.93;;;12.60;48.80;;;;;;20830181;28;20515;-57
2023/04/14 03:28:16;;;;;;;1.40;0.80;;;12.70;48.90;;;;;;20830555;28;20049;-56
2023/04/14 03:38:20;;;;;;;0.98;0.63;;;12.60;48.90;;;;;;20829865;28;20128;-57
2023/04/14 03:48:25;;;;;;;4.60;1.08;;;12.50;49.20;;;;;;20836611;28;20060;-56
2023/04/14 03:58:28;;;;;;;3.78;1.10;;;12.40;49.50;;;;;;20843941;28;20050;-57
2023/04/14 04:08:30;;;;;;;2.53;0.90;;;12.40;49.70;;;;;;20844206;28;20403;-56
2023/04/14 04:18:37;;;;;;;2.75;0.90;;;12.30;49.80;;;;;;20842632;28;20446;-55
2023/04/14 04:28:39;;;;;;;3.13;1.10;;;12.20;50.10;;;;;;20842736;28;20053;-57
2023/04/14 04:38:41;;;;;;;1.95;0.90;;;12.10;50.60;;;;;;20840649;28;20057;-57
2023/04/14 04:48:43;;;;;;;2.58;1.13;;;12.10;50.90;;;;;;20840988;28;20061;-56
2023/04/14 04:58:45;;;;;;;3.38;1.13;;;12.10;51.00;;;;;;20840372;28;20049;-57
2023/04/14 05:08:47;;;;;;;3.60;1.25;;;12.00;51.30;;;;;;20839376;28;20480;-56
2023/04/14 05:18:48;;;;;;;3.05;0.93;;;12.00;51.20;;;;;;20837514;28;20058;-57
2023/04/14 05:28:50;;;;;;;2.25;1.17;;;12.00;51.50;;;;;;20837698;28;20099;-56
2023/04/14 05:38:51;;;;;;;4.18;1.27;;;11.90;52.00;;;;;;20836992;28;20053;-54
2023/04/14 05:48:52;;;;;;;3.30;1.60;;;11.90;52.20;;;;;;20836120;28;20049;-56
2023/04/14 05:58:54;;;;;;;2.65;1.40;;;11.90;52.50;;;;;;20835370;28;20053;-59
2023/04/14 06:08:55;;;;;;;3.33;1.80;;;12.00;52.40;;;;;;20833034;28;20095;-56
2023/04/14 06:18:57;;;;;;;4.72;2.28;;;12.10;52.10;;;;;;20832476;28;20064;-58
2023/04/14 06:28:59;;;;;;;3.30;1.33;;;12.20;51.90;;;;;;20832583;28;20140;-58
2023/04/14 06:39:00;;;;;;;4.53;1.70;;;12.30;51.90;;;;;;20830027;28;20099;-57
2023/04/14 06:49:02;;;;;;;4.80;1.38;;;12.50;51.60;;;;;;20830419;28;20053;-56
2023/04/14 06:59:03;;;;;;;3.38;1.50;;;12.50;51.70;;;;;;20829637;28;20053;-56
2023/04/14 07:09:05;;;;;;;3.08;1.20;;;12.70;51.60;;;;;;20828311;28;20052;-58
2023/04/14 07:19:07;;;;;;;29.67;4.43;;;12.80;51.30;;;;;;20830149;28;20061;-57
2023/04/14 07:29:08;;;;;;;4.00;1.48;;;13.20;50.40;;;;;;20846408;28;20140;-57
2023/04/14 07:39:10;;;;;;;7.03;1.50;;;13.50;49.20;;;;;;20846319;28;20112;-57
2023/04/14 07:49:11;;;;;;;4.30;1.27;;;13.70;48.80;;;;;;20843035;28;20046;-57
2023/04/14 07:59:12;;;;;;;2.20;1.17;;;14.20;47.90;;;;;;20842302;28;20089;-57
2023/04/14 08:09:14;;;;;;;3.17;1.63;;;14.60;46.70;;;;;;20842098;28;20049;-58
2023/04/14 08:19:15;;;;;;;2.65;1.17;;;14.90;46.40;;;;;;20839681;28;20481;-58
2023/04/14 08:29:17;;;;;;;3.83;1.10;;;15.10;46.20;;;;;;20837510;28;20410;-57
2023/04/14 08:39:18;;;;;;;3.10;1.13;;;15.40;46.20;;;;;;20836064;28;20049;-57
2023/04/14 08:49:37;;;;;;;1.60;0.98;;;15.70;45.90;;;;;;20834490;28;20160;-57
2023/04/14 08:59:38;;;;;;;3.10;0.90;;;15.90;46.00;;;;;;20832889;28;20050;-58
2023/04/14 09:09:40;;;;;;;2.17;1.05;;;15.90;46.00;;;;;;20833735;28;20049;-57
2023/04/14 09:19:42;;;;;;;1.50;0.85;;;16.40;45.20;;;;;;20793714;28;1220284;-57
2023/04/14 09:29:43;;;;;;;4.63;0.80;;;16.70;44.50;;;;;;20837790;28;20046;-57
2023/04/14 09:39:54;;;;;;;1.40;0.75;;;17.10;44.10;;;;;;20836207;28;20049;-57
2023/04/14 09:49:56;;;;;;;2.95;0.90;;;17.40;43.50;;;;;;20834350;28;20052;-57
2023/04/14 09:59:58;;;;;;;1.73;0.80;;;17.60;43.50;;;;;;20833118;28;20060;-57
2023/04/14 10:10:06;;;;;;;2.13;0.82;;;17.60;44.50;;;;;;20834417;28;20117;-57
2023/04/14 10:20:09;;;;;;;6.72;4.75;;;18.10;43.50;;;;;;20827958;28;20049;-57
2023/04/14 10:30:11;;;;;;;2.05;0.60;;;18.00;44.20;;;;;;20830267;28;20442;-57
2023/04/14 10:40:12;;;;;;;5.38;2.03;;;17.90;44.70;;;;;;20831581;28;20045;-58
2023/04/14 10:50:16;;;;;;;2.30;0.80;;;18.30;44.30;;;;;;20831612;28;20064;-57
2023/04/14 11:00:22;;;;;;;2.00;0.68;;;18.40;43.70;;;;;;20830787;28;20077;-57
2023/04/14 11:10:25;;;;;;;3.30;1.23;;;18.50;43.30;;;;;;20830491;28;20403;-57
2023/04/14 11:20:26;;;;;;;3.53;1.10;;;18.80;42.70;;;;;;20829772;28;20457;-57
2023/04/14 11:30:27;;;;;;;2.90;1.55;;;18.80;42.70;;;;;;20829740;28;20136;-56
2023/04/14 11:40:29;;;;;;;3.25;1.48;;;18.70;42.80;;;;;;20829126;28;20049;-56
2023/04/14 11:50:34;;;;;;;2.50;0.90;;;19.00;42.10;;;;;;20827990;28;20060;-57
2023/04/14 12:00:36;;;;;;;2.28;1.02;;;19.20;41.50;;;;;;20828870;28;20052;-56
2023/04/14 12:10:40;;;;;;;1.40;0.60;;;19.30;40.80;;;;;;20835327;28;20045;-57
2023/04/14 12:20:42;;;;;;;1.65;0.80;;;19.40;40.50;;;;;;20841648;28;20057;-57
2023/04/14 12:30:51;;;;;;;1.63;0.77;;;19.20;40.70;;;;;;20841453;28;20041;-56
2023/04/14 12:40:53;;;;;;;4.78;0.80;;;19.50;40.60;;;;;;20840364;28;20077;-57
2023/04/14 12:51:07;;;;;;;2.13;0.70;;;19.80;40.10;;;;;;20839189;28;20053;-56
2023/04/14 13:01:10;;;;;;;1.05;0.63;;;20.00;39.60;;;;;;20838004;28;20049;-57
2023/04/14 13:11:15;;;;;;;1.73;0.85;;;19.90;39.70;;;;;;20839211;28;20474;-57
2023/04/14 13:21:16;;;;;;;6.00;1.02;;;20.10;39.70;;;;;;20838114;28;20534;-57
2023/04/14 13:31:17;;;;;;;1.70;0.70;;;20.10;39.40;;;;;;20836205;28;20049;-59
2023/04/14 13:41:19;;;;;;;2.15;0.90;;;20.20;39.30;;;;;;20836864;28;20107;-57
2023/04/14 13:51:22;;;;;;;1.88;1.00;;;20.20;40.40;;;;;;20835569;28;20479;-57
2023/04/14 14:01:23;;;;;;;6.93;4.30;;;20.20;40.10;;;;;;20833078;28;20057;-56
2023/04/14 14:11:25;;;;;;;3.42;1.35;;;20.10;40.90;;;;;;20832445;28;20069;-55
2023/04/14 14:21:26;;;;;;;2.22;0.63;;;20.20;40.70;;;;;;20832499;28;20530;-56
2023/04/14 14:31:27;;;;;;;2.15;0.52;;;20.20;40.50;;;;;;20832738;28;20475;-58
2023/04/14 14:41:29;;;;;;;2.50;1.42;;;19.90;41.20;;;;;;20832082;28;20045;-59
2023/04/14 14:51:30;;;;;;;3.40;0.88;;;19.80;41.70;;;;;;20830248;28;20045;-58
2023/04/14 15:01:32;;;;;;;1.13;0.60;;;19.90;41.50;;;;;;20831048;28;20053;-58
2023/04/14 15:11:33;;;;;;;1.88;0.80;;;19.80;41.30;;;;;;20830915;28;20441;-56
2023/04/14 15:21:34;;;;;;;2.10;0.98;;;19.70;40.80;;;;;;20829061;28;20057;-58
2023/04/14 15:31:36;;;;;;;4.75;2.03;;;19.90;40.60;;;;;;20829821;28;20132;-59
2023/04/14 15:41:37;;;;;;;3.22;0.93;;;19.90;40.00;;;;;;20830327;28;20073;-57
2023/04/14 15:51:38;;;;;;;5.20;1.13;;;19.80;40.00;;;;;;20840045;28;20054;-58
2023/04/14 16:01:40;;;;;;;6.50;1.00;;;19.90;40.30;;;;;;20844352;28;20398;-58
2023/04/14 16:11:41;;;;;;;4.00;1.45;;;20.10;39.80;;;;;;20841660;28;20049;-57
2023/04/14 16:21:42;;;;;;;2.88;0.60;;;19.70;40.40;;;;;;20836266;28;20523;-60
2023/04/14 16:31:44;;;;;;;4.25;0.95;;;19.50;41.30;;;;;;20842107;28;20049;-58
2023/04/14 16:41:45;;;;;;;1.88;0.80;;;19.40;42.10;;;;;;20834196;28;20060;-57
2023/04/14 16:51:47;;;;;;;6.30;1.35;;;19.60;41.40;;;;;;20811850;28;20050;-59
2023/04/14 17:01:48;;;;;;;3.33;0.90;;;19.60;41.00;;;;;;20805651;28;20458;-59
2023/04/14 17:11:49;;;;;;;1.88;0.90;;;19.90;41.10;;;;;;20809458;28;20120;-59
2023/04/14 17:21:51;;;;;;;1.85;0.90;;;19.80;41.40;;;;;;20807871;28;20451;-61
2023/04/14 17:31:53;;;;;;;4.82;1.02;;;19.90;40.40;;;;;;20808682;28;20049;-59
2023/04/14 17:41:56;;;;;;;3.75;1.30;;;19.70;40.70;;;;;;20817661;28;20037;-58
2023/04/14 17:51:59;;;;;;;3.40;1.80;;;19.60;40.80;;;;;;20876083;28;20049;-58
2023/04/14 18:02:00;;;;;;;3.70;1.08;;;19.40;41.20;;;;;;20881000;28;20064;-61
2023/04/14 18:12:02;;;;;;;5.45;1.00;;;19.20;41.60;;;;;;20914487;28;20453;-56
2023/04/14 18:22:03;;;;;;;7.10;1.30;;;19.20;41.40;;;;;;20882836;28;20118;-58
2023/04/14 18:32:04;;;;;;;5.63;2.40;;;19.00;42.40;;;;;;20831879;28;20052;-58
2023/04/14 18:42:06;;;;;;;3.03;1.35;;;19.20;42.30;;;;;;20831638;28;20475;-58
2023/04/14 18:52:07;;;;;;;2.65;1.45;;;19.00;42.60;;;;;;20829124;28;20434;-56
2023/04/14 19:02:12;;;;;;;4.75;2.63;;;19.00;42.50;;;;;;20829899;28;20514;-54
2023/04/14 19:12:13;;;;;;;11.73;6.30;;;19.00;41.70;;;;;;20827855;28;20076;-56
2023/04/14 19:22:15;;;;;;;10.20;6.45;;;18.70;41.90;;;;;;20841858;28;20060;-56
2023/04/14 19:32:17;;;;;;;5.88;2.80;;;18.60;43.40;;;;;;20844371;28;20045;-56
2023/04/14 19:42:18;;;;;;;6.28;3.58;;;18.30;44.90;;;;;;20846405;28;20075;-56
2023/04/14 19:52:19;;;;;;;5.80;1.65;;;18.20;45.60;;;;;;20844386;28;20054;-56
2023/04/14 20:02:21;;;;;;;3.42;1.23;;;18.00;44.70;;;;;;20844301;28;20387;-59
2023/04/14 20:12:23;;;;;;;4.75;1.23;;;17.70;45.20;;;;;;20841573;28;20557;-57
2023/04/14 20:22:24;;;;;;;3.75;1.30;;;17.60;45.60;;;;;;20840661;28;20079;-59
2023/04/14 20:32:26;;;;;;;3.30;1.80;;;17.60;46.20;;;;;;20840924;28;20049;-57
2023/04/14 20:42:28;;;;;;;2.40;1.20;;;17.50;46.80;;;;;;20841700;28;20042;-58
2023/04/14 20:52:29;;;;;;;4.28;1.42;;;17.30;47.60;;;;;;20841351;28;20053;-59
2023/04/14 21:02:31;;;;;;;3.17;1.98;;;17.20;48.10;;;;;;20839321;28;20050;-60
2023/04/14 21:12:33;;;;;;;3.72;1.83;;;17.10;48.90;;;;;;20838311;28;20056;-57
2023/04/14 21:22:35;;;;;;;4.13;1.63;;;17.00;49.30;;;;;;20835495;28;20133;-56
2023/04/14 21:32:38;;;;;;;3.83;2.13;;;17.00;50.00;;;;;;20837757;28;20050;-57
2023/04/14 21:42:39;;;;;;;8.73;5.07;;;16.90;50.40;;;;;;20836141;28;20053;-56
2023/04/14 21:52:40;;;;;;;8.23;5.35;;;16.70;50.80;;;;;;20836126;28;20052;-56
2023/04/14 22:02:45;;;;;;;3.92;1.92;;;16.70;51.10;;;;;;20835583;28;20053;-55
2023/04/14 22:12:47;;;;;;;10.77;4.28;;;16.70;51.20;;;;;;20833294;28;20117;-55
2023/04/14 22:22:48;;;;;;;4.40;1.73;;;16.60;51.10;;;;;;20834332;28;20513;-56
2023/04/14 22:32:49;;;;;;;8.70;1.95;;;16.60;50.70;;;;;;20833751;28;20506;-54
2023/04/14 22:42:51;;;;;;;6.40;1.40;;;16.50;50.20;;;;;;20833221;28;20041;-54
2023/04/14 22:52:52;;;;;;;4.22;1.00;;;16.40;50.30;;;;;;20831831;28;20060;-55
2023/04/14 23:02:54;;;;;;;5.70;1.40;;;16.50;49.70;;;;;;20831662;28;20049;-55
2023/04/14 23:12:57;;;;;;;9.68;4.95;;;16.40;49.60;;;;;;20829605;28;20053;-55
2023/04/14 23:22:58;;;;;;;10.25;4.15;;;16.50;49.60;;;;;;20830963;28;20053;-55
2023/04/14 23:32:59;;;;;;;3.92;1.20;;;16.20;50.00;;;;;;20830396;28;20053;-54
2023/04/14 23:43:02;;;;;;;3.45;1.20;;;16.20;49.70;;;;;;20830079;28;20434;-56
2023/04/14 23:53:03;;;;;;;8.68;4.78;;;16.00;49.90;;;;;;20829817;28;20435;-54
